Time;durP1;ratioP1;P1;durP2;ratioP2;P2;SDS_P1;SDS_P2;PMS_P1;PMS_P2;Temp;Humidity;BMP_temperature;BMP_pressure;BME280_temperature;BME280_humidity;BME280_pressure;Samples;Min_cycle;Max_cycle;Signal;HPM_P1;HPM_P2
2022/03/08 00:01:24;;;;;;;;;38.75;36.00;;;;;5.31;76.68;101295.00;5124712;27;45427;-77
2022/03/08 00:03:49;;;;;;;;;37.50;34.00;;;;;5.31;74.20;101295.00;5129301;27;45306;-77
2022/03/08 00:06:15;;;;;;;;;38.75;35.50;;;;;5.30;75.70;101296.81;5121199;27;47399;-78
2022/03/08 00:08:42;;;;;;;;;38.75;34.75;;;;;5.03;75.10;101242.13;5122812;27;45182;-78
2022/03/08 00:11:07;;;;;;;;;38.25;36.75;;;;;5.27;75.15;101283.47;5124718;27;45147;-77
2022/03/08 00:13:33;;;;;;;;;53.75;39.00;;;;;5.26;76.32;101281.69;5125409;27;45174;-76
2022/03/08 00:15:58;;;;;;;;;42.50;35.00;;;;;4.48;75.60;101143.56;5122199;27;45072;-78
2022/03/08 00:18:24;;;;;;;;;39.75;35.75;;;;;5.27;76.76;101279.88;5107980;27;45262;-80
2022/03/08 00:20:49;;;;;;;;;40.50;36.75;;;;;4.99;75.29;101229.69;5110338;27;45067;-77
2022/03/08 00:23:15;;;;;;;;;37.50;35.00;;;;;5.13;74.16;101267.81;5122010;27;45190;-78
2022/03/08 00:25:40;;;;;;;;;46.00;40.00;;;;;5.23;74.69;101289.91;5126068;27;45200;-77
2022/03/08 00:28:05;;;;;;;;;41.75;33.75;;;;;4.37;77.21;101134.06;5128727;27;45094;-81
2022/03/08 00:30:31;;;;;;;;;43.00;33.50;;;;;4.80;77.54;101217.81;5126420;27;45028;-77
2022/03/08 00:32:57;;;;;;;;;44.75;39.00;;;;;5.02;77.00;101251.16;5115841;27;45100;-77
2022/03/08 00:35:24;;;;;;;;;40.25;35.00;;;;;5.18;77.47;101278.41;5108424;27;45338;-77
2022/03/08 00:37:50;;;;;;;;;42.00;37.00;;;;;5.09;79.73;101268.84;5108371;27;45453;-77
2022/03/08 00:40:18;;;;;;;;;36.25;34.25;;;;;4.58;77.73;101180.88;5106819;27;45202;-77
2022/03/08 00:42:44;;;;;;;;;44.00;35.00;;;;;5.12;76.58;101290.31;5108012;27;44950;-77
2022/03/08 00:45:10;;;;;;;;;46.00;39.50;;;;;5.10;77.22;101289.47;5097249;27;45503;-77
2022/03/08 00:47:39;;;;;;;;;39.25;36.00;;;;;4.43;78.98;101195.75;5108853;27;45281;-77
2022/03/08 00:50:07;;;;;;;;;49.50;40.75;;;;;4.27;77.55;101151.47;5106620;27;45154;-76
2022/03/08 00:52:32;;;;;;;;;35.50;32.75;;;;;4.91;78.18;101259.59;5105477;27;45048;-77
2022/03/08 00:54:58;;;;;;;;;42.00;37.25;;;;;4.72;77.30;101236.94;5108292;27;45150;-80
2022/03/08 00:57:23;;;;;;;;;36.75;32.25;;;;;4.93;76.60;101265.81;5107960;27;45122;-79
2022/03/08 00:59:49;;;;;;;;;44.00;38.00;;;;;4.73;77.30;101232.44;5108786;27;45117;-80
2022/03/08 01:02:14;;;;;;;;;51.00;35.00;;;;;4.89;78.94;101252.50;5107653;27;45235;-80
2022/03/08 01:04:39;;;;;;;;;37.75;33.50;;;;;5.00;76.97;101276.38;5107324;27;45487;-81
2022/03/08 01:07:07;;;;;;;;;41.75;37.25;;;;;4.90;77.80;101251.56;5111859;27;45056;-78
2022/03/08 01:09:33;;;;;;;;;43.75;39.00;;;;;4.57;78.98;101206.06;5106949;27;45146;-79
2022/03/08 01:11:59;;;;;;;;;37.75;34.75;;;;;4.90;78.14;101260.53;5111728;27;45238;-79
2022/03/08 01:14:25;;;;;;;;;41.50;34.50;;;;;4.93;78.65;101259.56;5111490;27;45508;-78
2022/03/08 01:16:50;;;;;;;;;48.75;39.25;;;;;3.94;78.24;101096.09;5112275;27;45203;-76
2022/03/08 01:19:15;;;;;;;;;43.50;40.25;;;;;4.90;78.20;101263.22;5111839;27;45083;-76
2022/03/08 01:21:41;;;;;;;;;44.00;36.25;;;;;4.84;79.52;101249.09;5080292;28;45162;-76
2022/03/08 01:24:06;;;;;;;;;46.75;37.50;;;;;3.72;79.73;101059.19;5098582;27;45000;-75
2022/03/08 01:26:32;;;;;;;;;46.75;39.00;;;;;4.89;79.97;101257.91;5111098;27;45018;-75
2022/03/08 01:28:57;;;;;;;;;43.25;36.50;;;;;4.73;78.98;101235.13;5111581;27;45576;-75
2022/03/08 01:31:23;;;;;;;;;47.00;38.25;;;;;4.17;78.64;101155.41;5111609;27;45250;-76
2022/03/08 01:33:54;;;;;;;;;43.75;34.25;;;;;4.83;78.40;101266.19;5125082;27;45545;-77
2022/03/08 01:36:20;;;;;;;;;47.25;37.25;;;;;4.72;78.35;101245.03;5125485;27;45247;-77
2022/03/08 01:38:45;;;;;;;;;39.00;37.75;;;;;4.81;79.86;101262.66;5124206;27;45462;-77
2022/03/08 01:41:11;;;;;;;;;43.00;37.00;;;;;4.81;79.52;101250.06;5125526;27;45275;-78
2022/03/08 01:43:36;;;;;;;;;48.50;39.50;;;;;4.79;79.36;101260.03;5131713;27;45047;-78
2022/03/08 01:46:02;;;;;;;;;43.00;38.00;;;;;4.30;79.48;101186.31;5129097;27;44976;-77
2022/03/08 01:48:28;;;;;;;;;45.25;39.50;;;;;4.78;79.41;101250.19;5111590;27;45195;-78
2022/03/08 01:50:54;;;;;;;;;42.00;37.50;;;;;4.56;79.55;101207.00;5120693;27;45396;-78
2022/03/08 01:53:20;;;;;;;;;46.00;35.75;;;;;4.78;79.41;101250.19;5128608;27;45360;-79
2022/03/08 01:55:45;;;;;;;;;46.00;38.00;;;;;4.78;80.95;101243.94;5129986;27;45087;-78
2022/03/08 01:58:11;;;;;;;;;46.75;38.00;;;;;4.77;80.32;101244.88;5111515;27;45134;-78
2022/03/08 02:00:36;;;;;;;;;41.75;37.25;;;;;4.58;80.71;101210.50;5108123;27;45151;-78
2022/03/08 02:03:02;;;;;;;;;46.50;36.75;;;;;4.01;79.96;101124.56;5114407;27;45321;-78
2022/03/08 02:05:28;;;;;;;;;44.00;37.75;;;;;4.73;80.20;101245.91;5129116;27;45142;-78
2022/03/08 02:07:54;;;;;;;;;40.50;37.25;;;;;4.32;81.17;101173.72;5118596;27;45149;-80
2022/03/08 02:10:20;;;;;;;;;47.25;40.75;;;;;4.40;80.38;101190.47;5131786;27;45066;-79
2022/03/08 02:12:45;;;;;;;;;44.00;37.25;;;;;4.66;79.89;101232.66;5115614;27;45154;-78
2022/03/08 02:15:16;;;;;;;;;40.75;38.00;;;;;4.70;79.74;101230.72;5131639;27;45047;-79
2022/03/08 02:17:41;;;;;;;;;38.25;34.75;;;;;4.65;80.41;101236.25;5110825;27;45209;-77
2022/03/08 02:20:09;;;;;;;;;41.25;37.25;;;;;3.64;79.04;101051.38;5111232;27;45134;-79
2022/03/08 02:22:35;;;;;;;;;40.75;35.25;;;;;4.68;81.20;101227.22;5129076;27;46210;-78
2022/03/08 02:25:02;;;;;;;;;40.50;38.50;;;;;4.68;81.69;101227.22;5128188;27;44786;-77
2022/03/08 02:27:27;;;;;;;;;45.75;38.50;;;;;4.43;80.88;101176.03;5136653;27;45144;-77
2022/03/08 02:29:53;;;;;;;;;38.00;35.00;;;;;4.66;81.76;101223.69;5124000;27;45193;-78
2022/03/08 02:32:18;;;;;;;;;45.25;37.75;;;;;3.92;80.81;101089.91;5137473;27;45581;-77
2022/03/08 02:34:43;;;;;;;;;39.50;36.00;;;;;4.66;80.48;101226.38;5118771;27;45108;-79
2022/03/08 02:37:11;;;;;;;;;37.75;34.75;;;;;4.65;82.28;101216.53;5132174;27;45334;-77
2022/03/08 02:39:37;;;;;;;;;42.50;35.75;;;;;4.64;82.78;101212.09;5118701;27;45221;-77
2022/03/08 02:42:05;;;;;;;;;39.50;34.25;;;;;4.42;82.50;101185.91;5127877;27;45614;-78
2022/03/08 02:44:31;;;;;;;;;52.00;41.25;;;;;3.74;82.63;101062.69;5135174;27;45053;-77
2022/03/08 02:46:59;;;;;;;;;47.75;38.50;;;;;4.49;81.68;101189.28;5130981;27;45090;-78
2022/03/08 02:49:25;;;;;;;;;44.25;41.00;;;;;3.88;82.08;101079.25;5125781;27;45155;-79
2022/03/08 02:51:50;;;;;;;;;49.75;40.00;;;;;4.42;82.26;101174.28;5127206;27;45995;-77
2022/03/08 02:54:15;;;;;;;;;40.50;35.25;;;;;4.53;83.61;101193.63;5115081;27;45059;-78
2022/03/08 02:56:41;;;;;;;;;47.50;38.00;;;;;3.83;83.56;101064.19;5122464;27;44937;-77
2022/03/08 02:59:06;;;;;;;;;51.75;40.25;;;;;3.79;84.97;101052.66;5121955;27;45070;-78
2022/03/08 03:01:32;;;;;;;;;41.00;36.75;;;;;4.46;83.68;101164.25;5125581;27;45038;-77
2022/03/08 03:03:57;;;;;;;;;45.00;38.50;;;;;4.65;83.86;101193.16;5124114;27;45066;-76
2022/03/08 03:06:22;;;;;;;;;45.00;35.50;;;;;4.65;82.35;101197.69;5128955;27;45166;-78
2022/03/08 03:08:48;;;;;;;;;45.25;38.75;;;;;4.40;82.17;101158.16;5120512;27;45192;-76
2022/03/08 03:11:13;;;;;;;;;36.00;35.25;;;;;4.45;82.48;101163.38;5121690;27;45505;-77
2022/03/08 03:13:38;;;;;;;;;49.00;37.25;;;;;4.63;82.86;101183.41;5130054;27;45425;-76
2022/03/08 03:16:04;;;;;;;;;44.25;37.00;;;;;4.54;82.43;101168.44;5130377;27;45007;-76
2022/03/08 03:18:29;;;;;;;;;46.50;38.00;;;;;4.63;82.78;101186.09;5131238;27;45149;-76
2022/03/08 03:20:54;;;;;;;;;38.00;30.00;;;;;4.64;83.57;101183.34;5110410;27;46970;-77
2022/03/08 03:23:20;;;;;;;;;50.25;40.00;;;;;4.65;83.27;101176.13;5122463;27;45081;-77
2022/03/08 03:25:45;;;;;;;;;49.50;40.75;;;;;4.66;82.65;101183.28;5128038;27;45026;-77
2022/03/08 03:28:10;;;;;;;;;44.75;37.00;;;;;3.83;83.06;101038.19;5122458;27;45144;-77
2022/03/08 03:30:36;;;;;;;;;36.00;31.75;;;;;4.64;82.26;101177.97;5124931;27;45123;-80
2022/03/08 03:33:03;;;;;;;;;47.75;34.75;;;;;4.17;83.17;101098.88;5130024;27;45176;-77
2022/03/08 03:35:29;;;;;;;;;54.50;40.25;;;;;4.24;82.65;101113.00;5123190;27;44934;-78
2022/03/08 03:37:54;;;;;;;;;43.75;38.50;;;;;4.65;82.77;101173.44;5123619;27;45149;-78
2022/03/08 03:40:20;;;;;;;;;42.00;38.00;;;;;4.64;84.00;101177.97;5110042;27;45537;-77
2022/03/08 03:42:46;;;;;;;;;41.50;38.25;;;;;4.18;82.43;101084.50;5109280;27;45048;-77
2022/03/08 03:45:12;;;;;;;;;41.00;35.75;;;;;4.07;82.68;101074.13;5110191;27;45370;-77
2022/03/08 03:47:37;;;;;;;;;45.25;38.00;;;;;4.61;82.60;101163.72;5114763;27;45138;-80
2022/03/08 03:50:05;;;;;;;;;53.25;42.25;;;;;4.60;82.92;101164.66;5123766;27;45168;-81
2022/03/08 03:52:30;;;;;;;;;39.75;35.25;;;;;4.60;83.06;101170.03;5113455;27;45305;-77
2022/03/08 03:54:55;;;;;;;;;47.75;38.50;;;;;4.16;83.86;101114.16;5128754;27;45031;-78
2022/03/08 03:57:21;;;;;;;;;44.00;37.00;;;;;4.25;83.47;101107.56;5116707;27;45070;-77
2022/03/08 03:59:46;;;;;;;;;41.50;32.50;;;;;3.72;84.33;101029.63;5128125;27;45516;-77
2022/03/08 04:02:12;;;;;;;;;37.25;30.00;;;;;3.98;83.10;101073.56;5123154;27;45514;-77
2022/03/08 04:04:37;;;;;;;;;47.25;39.75;;;;;4.11;83.24;101096.44;5128195;27;45146;-76
2022/03/08 04:07:03;;;;;;;;;45.00;39.50;;;;;4.52;83.37;101175.72;5129194;27;45216;-79
2022/03/08 04:09:28;;;;;;;;;40.50;38.25;;;;;4.13;82.75;101108.00;5124232;27;45656;-79
2022/03/08 04:11:53;;;;;;;;;46.00;38.75;;;;;4.47;83.46;101163.34;5130056;27;44968;-75
2022/03/08 04:14:19;;;;;;;;;43.00;38.25;;;;;4.27;83.68;101139.81;5109781;27;45067;-78
2022/03/08 04:16:44;;;;;;;;;47.00;38.25;;;;;4.42;83.83;101164.38;5122860;27;45063;-77
2022/03/08 04:19:09;;;;;;;;;43.75;38.25;;;;;4.40;85.17;101177.00;5124372;27;45893;-76
2022/03/08 04:21:35;;;;;;;;;46.75;34.50;;;;;4.33;84.13;101162.00;5112958;27;45107;-75
2022/03/08 04:24:00;;;;;;;;;34.50;32.75;;;;;3.72;82.50;101069.94;5127125;27;45064;-75
2022/03/08 04:26:25;;;;;;;;;42.00;37.25;;;;;4.32;83.27;101184.47;5125175;27;45136;-76
2022/03/08 04:28:51;;;;;;;;;42.25;32.50;;;;;4.20;83.02;101154.41;5123861;27;45537;-76
2022/03/08 04:31:17;;;;;;;;;43.50;36.75;;;;;4.27;84.86;101172.13;5125160;27;45203;-79
2022/03/08 04:33:42;;;;;;;;;45.75;38.25;;;;;4.25;85.34;101166.75;5126617;27;45221;-77
2022/03/08 04:36:07;;;;;;;;;43.25;37.00;;;;;4.27;85.11;101175.69;5124869;27;45229;-78
2022/03/08 04:38:33;;;;;;;;;31.75;28.25;;;;;4.27;83.85;101154.16;5127437;27;45617;-80
2022/03/08 04:41:02;;;;;;;;;48.25;33.50;;;;;3.27;86.05;100980.97;5131768;27;45113;-79
2022/03/08 04:43:28;;;;;;;;;45.75;37.50;;;;;4.23;85.25;101155.19;5127991;27;45431;-81
2022/03/08 04:45:54;;;;;;;;;38.00;35.75;;;;;3.88;86.01;101095.38;5125600;27;45478;-80
2022/03/08 04:48:19;;;;;;;;;48.50;38.50;;;;;3.81;84.44;101082.22;5118175;27;45183;-80
2022/03/08 04:50:45;;;;;;;;;49.75;41.50;;;;;4.22;85.31;101158.81;5128785;27;45012;-80
2022/03/08 04:53:10;;;;;;;;;49.25;40.00;;;;;3.44;84.46;101023.41;5118785;27;45425;-81
2022/03/08 04:55:35;;;;;;;;;38.00;35.25;;;;;4.23;85.13;101160.56;5132489;27;45086;-78
2022/03/08 04:58:01;;;;;;;;;39.75;33.00;;;;;4.07;84.66;101127.06;5117451;27;45767;-79
2022/03/08 05:00:26;;;;;;;;;38.50;37.75;;;;;4.06;85.20;101136.94;5113575;27;45248;-80
2022/03/08 05:02:52;;;;;;;;;41.75;34.50;;;;;3.19;85.75;100983.03;5130953;27;45173;-81
2022/03/08 05:05:17;;;;;;;;;45.75;40.00;;;;;4.10;87.14;101152.00;5119461;27;45081;-80
2022/03/08 05:07:42;;;;;;;;;50.00;40.25;;;;;4.20;86.06;101147.19;5111492;27;45046;-80
2022/03/08 05:10:11;;;;;;;;;48.75;40.00;;;;;4.19;86.80;101142.75;5118398;27;46318;-80
2022/03/08 05:12:37;;;;;;;;;42.00;37.75;;;;;3.74;86.96;101084.22;5127580;27;45146;-78
2022/03/08 05:15:04;;;;;;;;;52.00;40.25;;;;;3.36;87.52;101004.84;5118137;27;45307;-80
2022/03/08 05:17:30;;;;;;;;;50.00;42.25;;;;;4.05;88.04;101129.78;5121878;27;45862;-80
2022/03/08 05:19:56;;;;;;;;;47.00;38.25;;;;;4.22;86.60;101149.88;5097280;27;45842;-79
2022/03/08 05:22:22;;;;;;;;;48.00;40.00;;;;;4.22;87.60;101144.47;5115529;27;45804;-78
2022/03/08 05:24:47;;;;;;;;;44.75;37.50;;;;;3.54;86.94;101030.22;5106688;27;45793;-80
2022/03/08 05:27:12;;;;;;;;;48.75;41.75;;;;;3.96;87.76;101100.53;5112927;27;45353;-80
2022/03/08 05:29:38;;;;;;;;;44.00;38.50;;;;;4.00;86.59;101106.66;5102940;27;45652;-80
2022/03/08 05:32:04;;;;;;;;;43.00;38.25;;;;;4.03;85.69;101115.50;5103969;27;45619;-77
2022/03/08 05:34:30;;;;;;;;;49.75;39.00;;;;;4.02;88.10;101119.13;5111720;27;45416;-76
2022/03/08 05:36:56;;;;;;;;;47.00;38.00;;;;;3.90;85.89;101087.25;5112775;27;45587;-77
2022/03/08 05:39:21;;;;;;;;;48.50;41.00;;;;;3.28;87.03;100986.28;5101813;27;45484;-77
2022/03/08 05:41:47;;;;;;;;;46.75;36.50;;;;;4.21;86.40;101143.59;5107592;27;45366;-76
2022/03/08 05:44:12;;;;;;;;;51.25;42.00;;;;;4.20;87.37;101140.94;5116434;27;45636;-76
2022/03/08 05:46:37;;;;;;;;;50.00;41.25;;;;;4.20;86.88;101138.25;5109047;27;45403;-77
2022/03/08 05:49:03;;;;;;;;;57.50;44.00;;;;;4.05;86.48;101123.50;5115899;27;45905;-76
2022/03/08 05:51:28;;;;;;;;;43.50;36.75;;;;;3.99;86.99;101096.81;5106200;27;45601;-78
2022/03/08 05:53:54;;;;;;;;;42.75;37.50;;;;;4.19;87.51;101149.94;5119001;27;45354;-77
2022/03/08 05:56:19;;;;;;;;;46.50;40.75;;;;;3.79;89.07;101070.59;5110683;27;46234;-77
2022/03/08 05:58:45;;;;;;;;;54.50;41.00;;;;;4.18;87.95;101135.63;5111655;27;45340;-76
2022/03/08 06:01:10;;;;;;;;;49.75;41.25;;;;;3.96;87.73;101099.63;5115222;27;45565;-77
2022/03/08 06:03:35;;;;;;;;;50.00;39.50;;;;;4.18;86.77;101137.44;5114086;27;45575;-77
2022/03/08 06:06:01;;;;;;;;;46.00;40.00;;;;;4.18;87.87;101142.81;5099366;27;45492;-76
2022/03/08 06:08:26;;;;;;;;;52.50;37.50;;;;;4.17;88.00;101144.63;5115460;27;45632;-77
2022/03/08 06:10:51;;;;;;;;;55.50;42.00;;;;;3.69;88.05;101058.41;5112988;27;45560;-77
2022/03/08 06:13:17;;;;;;;;;53.75;40.25;;;;;4.18;88.86;101154.47;5113926;27;45492;-76
2022/03/08 06:15:42;;;;;;;;;49.50;42.00;;;;;4.18;88.46;101148.19;5112321;27;45534;-77
2022/03/08 06:18:07;;;;;;;;;50.75;43.25;;;;;4.19;88.55;101160.72;5112824;27;45367;-77
2022/03/08 06:20:33;;;;;;;;;49.50;37.25;;;;;3.81;89.14;101099.22;5116421;27;45153;-77
2022/03/08 06:22:59;;;;;;;;;49.75;40.75;;;;;4.17;88.40;101160.78;5106883;27;45454;-77
2022/03/08 06:25:25;;;;;;;;;48.00;38.25;;;;;4.18;88.73;101164.34;5111204;27;47938;-76
2022/03/08 06:27:50;;;;;;;;;50.50;40.50;;;;;4.15;87.04;101159.94;5111831;27;45429;-76
2022/03/08 06:30:15;;;;;;;;;37.50;34.00;;;;;4.14;88.32;101158.19;5102987;27;45406;-77
2022/03/08 06:32:41;;;;;;;;;46.00;38.00;;;;;3.84;87.88;101111.66;5106275;27;45558;-76
2022/03/08 06:35:07;;;;;;;;;45.25;39.25;;;;;3.99;88.59;101146.13;5110947;27;45597;-77
2022/03/08 06:37:33;;;;;;;;;49.50;39.00;;;;;3.60;88.19;101070.38;5107559;27;45605;-75
2022/03/08 06:39:58;;;;;;;;;51.75;42.50;;;;;4.14;88.94;101174.31;5112748;27;45629;-75
2022/03/08 06:42:24;;;;;;;;;53.25;42.25;;;;;3.94;88.91;101126.56;5101772;27;45543;-76
2022/03/08 06:44:49;;;;;;;;;54.25;40.50;;;;;4.14;88.60;101161.75;5105200;27;46848;-77
2022/03/08 06:47:14;;;;;;;;;50.00;39.25;;;;;3.88;87.80;101114.22;5097651;27;45354;-76
2022/03/08 06:49:42;;;;;;;;;51.25;40.25;;;;;3.86;87.15;101117.91;5109014;27;45985;-76
2022/03/08 06:52:09;;;;;;;;;51.75;40.00;;;;;4.14;88.39;101164.44;5092132;27;45491;-76
2022/03/08 06:54:35;;;;;;;;;50.75;42.25;;;;;4.13;87.36;101165.38;5091803;27;45979;-76
2022/03/08 06:57:00;;;;;;;;;57.00;41.75;;;;;4.00;87.98;101139.81;5092637;27;45425;-77
2022/03/08 06:59:26;;;;;;;;;52.00;41.75;;;;;3.75;89.00;101099.44;5092434;27;45475;-77
2022/03/08 07:01:52;;;;;;;;;45.50;42.25;;;;;4.04;88.05;101145.97;5092314;27;45519;-76
2022/03/08 07:04:18;;;;;;;;;44.50;38.25;;;;;3.80;88.44;101116.28;5106857;27;46605;-78
2022/03/08 07:06:44;;;;;;;;;50.00;41.25;;;;;4.12;88.32;101165.44;5108865;27;45587;-77
2022/03/08 07:09:09;;;;;;;;;52.75;41.50;;;;;3.74;87.57;101097.66;5095253;27;45583;-76
2022/03/08 07:11:39;;;;;;;;;52.00;40.50;;;;;4.11;87.49;101152.94;5091877;27;45436;-76
2022/03/08 07:14:05;;;;;;;;;57.00;43.75;;;;;4.11;90.12;101159.19;5095003;27;45515;-76
2022/03/08 07:16:30;;;;;;;;;46.25;38.50;;;;;3.99;88.77;101135.38;5091781;27;45534;-76
2022/03/08 07:18:56;;;;;;;;;47.50;40.50;;;;;4.15;88.72;101163.50;5090388;27;45557;-74
2022/03/08 07:21:22;;;;;;;;;57.25;44.25;;;;;4.16;88.33;101162.59;5096683;27;45058;-74
2022/03/08 07:23:47;;;;;;;;;54.50;41.00;;;;;3.94;87.66;101123.88;5087647;27;46124;-75
2022/03/08 07:26:12;;;;;;;;;65.50;53.25;;;;;3.78;88.81;101104.69;5101013;27;45402;-75
2022/03/08 07:28:38;;;;;;;;;52.25;40.50;;;;;4.07;89.20;101144.06;5109542;27;45577;-76
2022/03/08 07:31:04;;;;;;;;;42.50;38.25;;;;;4.25;89.20;101179.34;5111328;27;45637;-74
2022/03/08 07:33:30;;;;;;;;;55.75;45.00;;;;;4.25;90.58;101174.84;5105099;27;45727;-76
2022/03/08 07:35:55;;;;;;;;;48.00;41.25;;;;;4.11;90.81;101155.63;5090182;27;45790;-76
2022/03/08 07:38:20;;;;;;;;;56.75;42.75;;;;;4.30;89.91;101180.06;5102042;27;45534;-78
2022/03/08 07:40:46;;;;;;;;;45.00;40.00;;;;;4.19;88.45;101153.53;5091018;27;45499;-76
2022/03/08 07:43:12;;;;;;;;;51.50;40.75;;;;;3.96;87.72;101116.66;5109975;27;46036;-77
2022/03/08 07:45:38;;;;;;;;;94.50;68.50;;;;;4.35;88.97;101188.84;5101582;27;45474;-76
2022/03/08 07:48:05;;;;;;;;;58.00;43.25;;;;;4.02;87.06;101137.09;5092233;27;45911;-75
2022/03/08 07:50:32;;;;;;;;;57.25;44.25;;;;;4.36;86.61;101193.34;5091358;27;45489;-76
2022/03/08 07:52:59;;;;;;;;;66.50;48.00;;;;;4.34;86.56;101190.69;5092854;27;46165;-76
2022/03/08 07:55:26;;;;;;;;;54.00;42.25;;;;;3.96;86.14;101124.72;5090732;27;45361;-77
2022/03/08 07:57:51;;;;;;;;;52.75;40.50;;;;;4.36;89.36;101196.91;5091488;27;45899;-77
2022/03/08 08:00:17;;;;;;;;;55.25;41.75;;;;;4.39;87.79;101193.22;5091003;27;45447;-77
2022/03/08 08:02:42;;;;;;;;;56.50;46.00;;;;;3.93;88.74;101114.06;5090390;27;45687;-76
2022/03/08 08:05:08;;;;;;;;;52.00;41.25;;;;;4.28;87.99;101161.28;5090785;27;45543;-76
2022/03/08 08:07:34;;;;;;;;;56.25;45.25;;;;;4.45;88.14;101181.34;5094610;27;45520;-77
2022/03/08 08:10:00;;;;;;;;;60.50;46.00;;;;;4.48;89.98;101186.63;5111268;27;45476;-76
2022/03/08 08:12:26;;;;;;;;;53.75;44.75;;;;;4.51;88.72;101183.81;5111336;27;45444;-78
2022/03/08 08:14:51;;;;;;;;;51.00;42.75;;;;;4.52;86.96;101186.47;5103892;27;45596;-78
2022/03/08 08:17:18;;;;;;;;;44.25;41.50;;;;;4.37;88.03;101160.97;5102155;27;45352;-77
2022/03/08 08:19:43;;;;;;;;;56.75;44.00;;;;;4.36;88.35;101155.66;5104576;27;45911;-77
2022/03/08 08:22:09;;;;;;;;;53.25;43.25;;;;;4.53;88.56;101177.47;5112014;27;45279;-76
2022/03/08 08:24:35;;;;;;;;;47.75;40.00;;;;;4.66;89.32;101189.56;5113409;27;45368;-77
2022/03/08 08:27:01;;;;;;;;;58.00;46.75;;;;;4.26;87.99;101109.34;5117206;27;45472;-77
2022/03/08 08:29:27;;;;;;;;;58.25;41.00;;;;;4.65;88.05;101174.31;5108177;27;46065;-78
2022/03/08 08:31:52;;;;;;;;;59.50;43.50;;;;;3.49;86.96;100970.38;5116265;27;45861;-79
2022/03/08 08:34:17;;;;;;;;;55.75;45.25;;;;;4.74;86.13;101177.63;5114499;27;45395;-78
2022/03/08 08:36:47;;;;;;;;;56.00;45.00;;;;;4.84;86.67;101192.53;5104782;27;45356;-79
2022/03/08 08:39:14;;;;;;;;;63.00;46.75;;;;;4.27;86.31;101086.00;5111372;27;45599;-76
2022/03/08 08:41:41;;;;;;;;;37.75;28.50;;;;;4.77;90.07;101178.41;5114999;27;45417;-76
2022/03/08 08:44:07;;;;;;;;;22.00;14.50;;;;;4.93;86.11;101202.97;5109543;27;45490;-75
2022/03/08 08:46:32;;;;;;;;;59.50;47.75;;;;;4.66;86.08;101148.28;5109165;27;45491;-76
2022/03/08 08:48:57;;;;;;;;;48.75;41.00;;;;;4.55;86.72;101127.13;5104918;27;45514;-75
2022/03/08 08:51:23;;;;;;;;;50.00;40.50;;;;;5.04;86.04;101211.53;5098245;27;45483;-77
2022/03/08 08:53:48;;;;;;;;;60.25;45.00;;;;;4.82;83.96;101162.09;5110964;27;45501;-75
2022/03/08 08:56:13;;;;;;;;;57.00;45.00;;;;;5.08;87.15;101206.91;5114440;27;45349;-77
2022/03/08 08:58:39;;;;;;;;;57.00;46.75;;;;;5.11;87.67;101212.19;5111865;27;45489;-78
2022/03/08 09:01:04;;;;;;;;;57.50;44.00;;;;;4.71;86.44;101129.25;5112808;27;46150;-75
2022/03/08 09:03:29;;;;;;;;;54.00;43.50;;;;;4.73;85.06;101117.50;5098307;27;45428;-76
2022/03/08 09:05:55;;;;;;;;;51.25;41.50;;;;;5.21;85.53;101201.00;5095294;27;45927;-77
2022/03/08 09:08:24;;;;;;;;;76.00;55.25;;;;;5.21;84.56;101192.03;5109038;27;45405;-77
2022/03/08 09:10:51;;;;;;;;;60.00;45.00;;;;;5.11;85.22;101164.53;5094434;27;45988;-76
2022/03/08 09:13:16;;;;;;;;;63.00;49.25;;;;;5.11;84.63;101169.06;5090026;27;45868;-77
2022/03/08 09:15:41;;;;;;;;;63.25;50.25;;;;;4.97;84.65;101122.88;5090774;27;45414;-77
2022/03/08 09:18:08;;;;;;;;;57.50;46.00;;;;;5.39;84.18;101190.47;5102923;27;45818;-77
2022/03/08 09:20:34;;;;;;;;;60.25;48.75;;;;;5.42;85.26;101191.25;5106189;27;45595;-76
2022/03/08 09:22:59;;;;;;;;;62.00;48.50;;;;;4.94;87.22;101105.91;5097481;27;45508;-78
2022/03/08 09:25:25;;;;;;;;;61.75;42.50;;;;;5.51;85.20;101191.78;5092184;27;45456;-77
2022/03/08 09:27:51;;;;;;;;;60.50;44.75;;;;;5.18;85.47;101114.88;5096637;27;45487;-76
2022/03/08 09:30:16;;;;;;;;;57.00;45.00;;;;;5.05;87.20;101088.47;5097492;27;45425;-77
2022/03/08 09:32:42;;;;;;;;;56.75;42.50;;;;;5.65;86.09;101184.06;5090475;27;45392;-77
2022/03/08 09:35:08;;;;;;;;;49.50;41.00;;;;;5.27;85.19;101115.44;5092862;27;45407;-77
2022/03/08 09:37:34;;;;;;;;;54.75;44.75;;;;;5.43;87.56;101122.00;5092621;27;45598;-77
2022/03/08 09:40:00;;;;;;;;;57.25;44.00;;;;;5.32;89.86;101091.88;5104842;27;45505;-75
2022/03/08 09:42:25;;;;;;;;;63.00;50.50;;;;;5.71;88.24;101155.00;5117015;27;45664;-76
2022/03/08 09:44:51;;;;;;;;;55.00;41.25;;;;;5.87;87.31;101174.13;5119646;27;45454;-76
2022/03/08 09:47:18;;;;;;;;;52.75;43.50;;;;;5.55;84.31;101116.09;5118339;27;45798;-80
2022/03/08 09:49:44;;;;;;;;;57.00;45.50;;;;;5.95;85.01;101177.44;5113717;27;46067;-77
2022/03/08 09:52:10;;;;;;;;;52.50;46.25;;;;;5.87;88.90;101146.28;5106146;27;45421;-76
2022/03/08 09:54:35;;;;;;;;;59.25;48.50;;;;;5.49;84.82;101072.34;5093851;27;45302;-77
2022/03/08 09:57:08;;;;;;;;;56.75;47.00;;;;;5.81;86.94;101122.25;5107647;27;45806;-77
2022/03/08 09:59:33;;;;;;;;;50.00;42.75;;;;;5.91;86.01;101127.25;5112673;27;46134;-76
2022/03/08 10:01:59;;;;;;;;;49.25;39.50;;;;;5.55;86.13;101058.59;5112499;27;45460;-79
2022/03/08 10:04:24;;;;;;;;;58.00;45.00;;;;;6.12;84.03;101147.03;5114036;27;45396;-79
2022/03/08 10:06:50;;;;;;;;;59.75;43.75;;;;;6.29;84.21;101173.34;5093805;27;45434;-76
2022/03/08 10:09:20;;;;;;;;;65.25;48.25;;;;;5.63;85.28;101040.28;5101978;27;47534;-76
2022/03/08 10:11:54;;;;;;;;;54.75;44.50;;;;;6.31;85.80;101148.97;5093095;27;45474;-77
2022/03/08 10:14:38;;;;;;;;;60.25;44.50;;;;;6.02;83.85;101091.69;5091658;27;45699;-77
2022/03/08 10:17:06;;;;;;;;;62.00;47.50;;;;;6.24;86.05;101121.38;5091913;27;45575;-78
2022/03/08 10:19:43;;;;;;;;;61.50;47.75;;;;;6.52;86.78;101157.97;5091634;27;46512;-78
2022/03/08 10:22:23;;;;;;;;;57.50;46.50;;;;;6.56;90.81;101157.75;5091626;27;45518;-77
2022/03/08 10:24:49;;;;;;;;;61.00;47.25;;;;;6.62;91.18;101153.91;5091664;27;45460;-77
2022/03/08 10:27:16;;;;;;;;;58.75;46.75;;;;;6.65;92.96;101151.09;5091662;27;45702;-76
2022/03/08 10:29:42;;;;;;;;;60.00;45.75;;;;;5.96;89.12;101029.91;5091317;27;45512;-77
2022/03/08 10:32:17;;;;;;;;;61.50;46.25;;;;;6.72;86.86;101145.31;5091667;27;45555;-77
2022/03/08 10:34:51;;;;;;;;;56.75;42.25;;;;;6.76;90.07;101141.53;5108915;27;45406;-77
2022/03/08 10:37:20;;;;;;;;;63.75;49.00;;;;;6.81;88.19;101145.88;5097310;27;45739;-77
2022/03/08 10:39:54;;;;;;;;;61.00;48.75;;;;;6.56;87.93;101083.97;5091226;27;45444;-77
2022/03/08 10:42:23;;;;;;;;;60.00;48.50;;;;;6.90;88.37;101149.03;5092583;27;45756;-74
2022/03/08 10:44:50;;;;;;;;;61.50;48.00;;;;;6.94;89.66;101137.13;5091286;27;45289;-77
2022/03/08 10:47:17;;;;;;;;;63.75;49.00;;;;;6.62;86.58;101086.38;5093133;27;45918;-78
2022/03/08 10:50:10;;;;;;;;;70.50;52.50;;;;;6.92;90.63;101127.34;5091411;27;46435;-77
2022/03/08 10:52:38;;;;;;;;;71.00;53.75;;;;;6.90;89.34;101108.50;5091490;27;45557;-77
2022/03/08 10:55:14;;;;;;;;;64.50;49.00;;;;;6.90;87.65;101105.78;5091703;27;45548;-76
2022/03/08 10:57:45;;;;;;;;;59.00;47.25;;;;;6.71;88.48;101070.63;5105337;27;45462;-76
2022/03/08 11:00:14;;;;;;;;;60.00;50.00;;;;;6.72;88.35;101058.00;5094812;27;46154;-78
2022/03/08 11:02:53;;;;;;;;;57.25;48.25;;;;;7.16;89.59;101126.19;5092270;27;45481;-77
2022/03/08 11:05:20;;;;;;;;;54.75;45.75;;;;;7.20;88.54;101126.94;5091003;27;45441;-78
2022/03/08 11:07:47;;;;;;;;;62.00;47.75;;;;;7.24;88.76;101124.00;5093985;27;45476;-77
2022/03/08 11:10:13;;;;;;;;;52.75;39.25;;;;;7.31;88.99;101118.31;5093804;27;48345;-77
2022/03/08 11:12:40;;;;;;;;;55.25;44.25;;;;;7.35;87.39;101119.91;5103548;27;45540;-76